Time;durP1;ratioP1;P1;durP2;ratioP2;P2;SDS_P1;SDS_P2;PMS_P1;PMS_P2;Temp;Humidity;BMP_temperature;BMP_pressure;BME280_temperature;BME280_humidity;BME280_pressure;Samples;Min_cycle;Max_cycle;Signal;HPM_P1;HPM_P2
2022/01/24 00:01:54;;;;;;;6.63;2.75;;;2.80;99.90;;;;;;4940413;28;20046;-71
2022/01/24 00:04:22;;;;;;;6.82;3.08;;;2.90;99.90;;;;;;4941249;28;21210;-71
2022/01/24 00:06:49;;;;;;;4.10;3.00;;;2.90;99.90;;;;;;4942639;28;20122;-68
2022/01/24 00:09:16;;;;;;;5.40;2.65;;;2.90;99.90;;;;;;4939706;28;20063;-71
2022/01/24 00:11:59;;;;;;;3.47;3.15;;;3.00;99.90;;;;;;4940761;28;22655;-69
2022/01/24 00:17:18;;;;;;;5.85;4.70;;;3.00;99.90;;;;;;4939523;28;20075;-77
2022/01/24 00:28:02;;;;;;;6.78;4.88;;;3.00;99.90;;;;;;4937805;28;20409;-68
2022/01/24 00:30:29;;;;;;;8.05;3.85;;;3.00;99.90;;;;;;4940839;28;20075;-76
2022/01/24 00:32:56;;;;;;;4.47;3.72;;;3.10;99.90;;;;;;4939885;28;20138;-67
2022/01/24 00:35:23;;;;;;;7.05;4.22;;;3.10;99.90;;;;;;4940592;28;20481;-74
2022/01/24 00:37:50;;;;;;;5.78;5.28;;;3.10;99.90;;;;;;4938173;28;20479;-69
2022/01/24 00:40:17;;;;;;;5.40;4.82;;;3.20;99.90;;;;;;4939651;28;20133;-69
2022/01/24 00:42:53;;;;;;;7.65;3.50;;;3.20;99.90;;;;;;4939841;28;20051;-65
2022/01/24 00:48:27;;;;;;;6.38;3.72;;;3.20;99.90;;;;;;4939944;28;20058;-68
2022/01/24 00:54:03;;;;;;;4.28;3.30;;;3.30;99.90;;;;;;4954146;28;20054;-68
2022/01/24 00:56:30;;;;;;;4.82;3.30;;;3.30;99.90;;;;;;4926452;28;20107;-68
2022/01/24 00:58:57;;;;;;;5.25;3.92;;;3.40;99.90;;;;;;4932272;28;20161;-64
2022/01/24 01:01:24;;;;;;;5.90;3.45;;;3.40;99.90;;;;;;4936574;28;20059;-65
2022/01/24 01:03:51;;;;;;;4.28;3.13;;;3.40;99.90;;;;;;4938954;28;20054;-69
2022/01/24 01:06:18;;;;;;;3.45;2.97;;;3.40;99.90;;;;;;4938321;28;20067;-67
2022/01/24 01:19:51;;;;;;;8.80;5.38;;;3.40;99.90;;;;;;4937130;28;20067;-69
2022/01/24 01:22:17;;;;;;;7.90;4.78;;;3.50;99.90;;;;;;4939812;28;20122;-68
2022/01/24 01:24:50;;;;;;;7.43;4.70;;;3.40;99.90;;;;;;4938707;28;20074;-80
2022/01/24 01:27:23;;;;;;;6.32;5.22;;;3.40;99.90;;;;;;4937561;28;20052;-74
2022/01/24 01:30:05;;;;;;;5.88;4.85;;;3.50;99.90;;;;;;4939717;28;20095;-68
2022/01/24 01:35:40;;;;;;;6.50;4.32;;;3.50;99.90;;;;;;4938756;28;20043;-71
2022/01/24 01:56:59;;;;;;;8.50;4.60;;;3.20;99.90;;;;;;4937275;28;20048;-69
2022/01/24 01:59:26;;;;;;;8.52;5.68;;;3.20;99.90;;;;;;4936203;28;20051;-69
2022/01/24 02:01:53;;;;;;;8.10;4.07;;;3.20;99.90;;;;;;4957451;28;20051;-68
2022/01/24 02:04:24;;;;;;;8.30;5.13;;;3.10;99.90;;;;;;4948450;28;20498;-68
2022/01/24 02:06:51;;;;;;;10.02;5.13;;;3.10;99.90;;;;;;4943329;28;20445;-64
2022/01/24 02:09:18;;;;;;;6.70;3.72;;;3.10;99.90;;;;;;4939877;28;20082;-67
2022/01/24 02:11:47;;;;;;;6.65;4.93;;;3.00;99.90;;;;;;4937570;28;20053;-68
2022/01/24 02:14:18;;;;;;;8.20;5.50;;;3.00;99.90;;;;;;4938208;28;20513;-65
2022/01/24 02:22:27;;;;;;;8.02;4.53;;;2.90;99.90;;;;;;4936658;28;20146;-70
2022/01/24 02:24:51;;;;;;;8.70;4.75;;;2.90;99.90;;;;;;4939012;28;20061;-72
2022/01/24 02:27:19;;;;;;;7.22;4.75;;;2.90;99.90;;;;;;4939900;28;20066;-68
2022/01/24 02:30:07;;;;;;;10.73;4.10;;;2.90;99.90;;;;;;4940576;28;20059;-68
2022/01/24 02:32:41;;;;;;;6.32;4.25;;;2.90;99.90;;;;;;4940077;28;20125;-74
2022/01/24 02:35:09;;;;;;;7.85;3.65;;;2.90;99.90;;;;;;4939788;28;20055;-67
2022/01/24 02:37:36;;;;;;;6.35;4.80;;;2.90;99.90;;;;;;4938314;28;20055;-69
2022/01/24 02:40:11;;;;;;;8.55;4.40;;;2.90;99.90;;;;;;4940505;28;20094;-65
2022/01/24 02:48:27;;;;;;;8.07;3.28;;;2.90;99.90;;;;;;4939626;28;20070;-72
2022/01/24 02:53:45;;;;;;;4.00;3.15;;;2.90;99.90;;;;;;4938962;28;20070;-72
2022/01/24 02:56:12;;;;;;;6.95;4.10;;;2.90;99.90;;;;;;4940322;28;20155;-65
2022/01/24 02:58:39;;;;;;;8.73;4.55;;;2.90;99.90;;;;;;4939256;28;20143;-66
2022/01/24 03:01:07;;;;;;;9.55;5.90;;;3.00;99.90;;;;;;4954636;28;20051;-67
2022/01/24 03:03:36;;;;;;;6.85;3.58;;;3.00;99.90;;;;;;4936171;28;20059;-64
2022/01/24 03:06:05;;;;;;;9.55;3.83;;;3.00;99.90;;;;;;4941849;28;20066;-66
2022/01/24 03:08:32;;;;;;;8.07;4.28;;;3.00;99.90;;;;;;4943829;28;20528;-72
2022/01/24 03:11:00;;;;;;;9.18;3.90;;;3.00;99.90;;;;;;4943367;28;20718;-70
2022/01/24 03:15:57;;;;;;;7.88;4.30;;;3.10;99.90;;;;;;4941918;28;20121;-67
2022/01/24 03:18:24;;;;;;;12.68;4.55;;;3.10;99.90;;;;;;4942006;28;20047;-67
2022/01/24 03:20:52;;;;;;;6.90;4.30;;;3.10;99.90;;;;;;4943384;28;20040;-67
2022/01/24 03:23:21;;;;;;;9.13;4.60;;;3.20;99.90;;;;;;4944863;28;20118;-71
2022/01/24 03:25:48;;;;;;;9.10;4.05;;;3.30;99.90;;;;;;4940018;28;20143;-64
2022/01/24 03:28:22;;;;;;;9.35;4.20;;;3.20;99.90;;;;;;4942056;28;20130;-73
2022/01/24 03:30:49;;;;;;;6.13;4.05;;;3.30;99.90;;;;;;4943267;28;20047;-67
2022/01/24 03:33:16;;;;;;;11.48;4.18;;;3.30;99.90;;;;;;4944418;28;20117;-68
2022/01/24 03:35:43;;;;;;;11.35;3.78;;;3.40;99.90;;;;;;4940754;28;20090;-64
2022/01/24 03:38:12;;;;;;;5.97;3.67;;;3.40;99.90;;;;;;4941255;28;20063;-64
2022/01/24 03:40:40;;;;;;;5.43;2.92;;;3.50;99.90;;;;;;4941380;28;20540;-68
2022/01/24 03:43:08;;;;;;;8.30;3.20;;;3.50;99.90;;;;;;4942919;28;20082;-73
2022/01/24 03:45:47;;;;;;;4.20;3.38;;;3.60;99.90;;;;;;4941657;28;20079;-67
2022/01/24 03:48:39;;;;;;;5.90;3.33;;;3.60;99.90;;;;;;4941665;28;21519;-67
2022/01/24 03:51:08;;;;;;;8.27;2.60;;;3.60;99.90;;;;;;4942850;28;20048;-67
2022/01/24 03:53:35;;;;;;;9.20;2.88;;;3.80;99.90;;;;;;4940212;28;20051;-72
2022/01/24 03:56:03;;;;;;;4.95;2.90;;;3.80;99.90;;;;;;4942203;28;20062;-66
2022/01/24 03:58:30;;;;;;;7.82;2.67;;;4.00;99.90;;;;;;4944228;28;20056;-66
2022/01/24 04:00:58;;;;;;;5.20;2.10;;;4.10;99.90;;;;;;4944357;28;20074;-65
2022/01/24 04:03:25;;;;;;;3.30;2.03;;;4.20;99.90;;;;;;4941380;28;21120;-65
2022/01/24 04:05:52;;;;;;;5.20;1.95;;;4.20;99.90;;;;;;4940092;28;20130;-69
2022/01/24 04:08:20;;;;;;;6.97;2.17;;;4.30;99.90;;;;;;4945048;28;20071;-71
2022/01/24 04:10:51;;;;;;;5.07;1.95;;;4.40;99.90;;;;;;4939653;28;20201;-66
2022/01/24 04:13:32;;;;;;;4.68;2.17;;;4.40;99.90;;;;;;4941393;28;20418;-71
2022/01/24 04:21:25;;;;;;;8.57;3.65;;;4.40;99.90;;;;;;4943771;28;20047;-70
2022/01/24 04:24:19;;;;;;;6.35;1.85;;;4.40;99.90;;;;;;4955045;28;20055;-67
2022/01/24 04:26:45;;;;;;;3.17;1.80;;;4.40;99.90;;;;;;4941547;28;20043;-71
2022/01/24 04:29:12;;;;;;;6.75;2.30;;;4.40;99.90;;;;;;4941667;28;20526;-76
2022/01/24 04:31:39;;;;;;;8.27;2.78;;;4.40;99.90;;;;;;4939336;28;20130;-65
2022/01/24 04:34:06;;;;;;;4.63;2.30;;;4.30;99.90;;;;;;4942215;28;20731;-65
2022/01/24 04:36:33;;;;;;;5.00;2.30;;;4.30;99.90;;;;;;4940636;28;21474;-66
2022/01/24 04:39:01;;;;;;;3.28;1.60;;;4.40;99.90;;;;;;4944069;28;20055;-69
2022/01/24 04:41:33;;;;;;;8.85;2.00;;;4.40;99.90;;;;;;4940454;28;20055;-69
2022/01/24 04:54:39;;;;;;;3.50;1.45;;;4.50;99.90;;;;;;4943104;28;20379;-66
2022/01/24 04:57:04;;;;;;;3.85;1.52;;;4.50;99.90;;;;;;4942147;28;20114;-68
2022/01/24 04:59:31;;;;;;;2.42;1.50;;;4.50;99.90;;;;;;4936093;28;20154;-65
2022/01/24 05:01:58;;;;;;;4.13;1.45;;;4.50;99.90;;;;;;4940380;28;20115;-69
2022/01/24 05:04:25;;;;;;;3.72;1.40;;;4.50;99.90;;;;;;4939089;28;21461;-65
2022/01/24 05:06:52;;;;;;;3.38;2.17;;;4.50;99.90;;;;;;4939651;28;20074;-66
2022/01/24 05:09:20;;;;;;;1.35;0.90;;;4.50;99.90;;;;;;4939154;28;20441;-68
2022/01/24 05:11:59;;;;;;;2.05;0.90;;;4.50;99.90;;;;;;4938487;28;20073;-67
2022/01/24 05:25:29;;;;;;;4.18;1.05;;;4.60;99.90;;;;;;4939212;28;20059;-66
2022/01/24 05:27:56;;;;;;;3.50;0.90;;;4.60;99.90;;;;;;4940734;28;20057;-68
2022/01/24 05:30:23;;;;;;;2.00;1.17;;;4.60;99.90;;;;;;4941240;28;20059;-68
2022/01/24 05:32:50;;;;;;;4.70;0.90;;;4.60;99.90;;;;;;4940861;28;20063;-66
2022/01/24 05:35:17;;;;;;;6.57;1.13;;;4.60;99.90;;;;;;4901479;28;20161;-65
2022/01/24 05:37:45;;;;;;;1.05;0.85;;;4.60;99.90;;;;;;4193713;28;10002200;-65
2022/01/24 05:40:12;;;;;;;1.70;0.85;;;4.60;99.90;;;;;;1020326;28;10001969;-65
2022/01/24 05:42:39;;;;;;;2.05;1.10;;;4.60;99.90;;;;;;4941265;28;20063;-66
2022/01/24 05:45:07;;;;;;;3.55;1.52;;;4.60;99.90;;;;;;4941258;28;20051;-65
2022/01/24 05:47:34;;;;;;;4.95;1.90;;;4.60;99.90;;;;;;4938846;28;20051;-64
2022/01/24 05:50:02;;;;;;;1.85;1.25;;;4.60;99.90;;;;;;4939989;28;20051;-71
2022/01/24 05:52:29;;;;;;;3.10;0.85;;;4.60;99.90;;;;;;4943326;28;21429;-66
2022/01/24 05:54:58;;;;;;;1.50;0.77;;;4.60;99.90;;;;;;4939932;28;20075;-69
2022/01/24 05:57:25;;;;;;;2.13;0.90;;;4.60;99.90;;;;;;4938381;28;20086;-66
2022/01/24 05:59:52;;;;;;;1.10;0.90;;;4.60;99.90;;;;;;4938864;28;20071;-66
2022/01/24 06:02:19;;;;;;;1.77;0.70;;;4.60;99.90;;;;;;4938818;28;20051;-74
2022/01/24 06:04:46;;;;;;;1.42;0.63;;;4.60;99.90;;;;;;4939878;28;20055;-67
2022/01/24 06:07:13;;;;;;;0.75;0.75;;;4.60;99.90;;;;;;4939944;28;20552;-65
2022/01/24 06:09:40;;;;;;;8.25;1.67;;;4.60;99.90;;;;;;4938663;28;20057;-70
2022/01/24 06:12:09;;;;;;;3.72;1.13;;;4.60;99.90;;;;;;4940372;28;20519;-66
2022/01/24 06:14:36;;;;;;;2.05;0.55;;;4.60;99.90;;;;;;4937586;28;20043;-68
2022/01/24 06:17:03;;;;;;;2.75;0.68;;;4.60;99.90;;;;;;4939199;28;20061;-64
2022/01/24 06:19:30;;;;;;;6.65;0.88;;;4.60;99.90;;;;;;4935819;28;20718;-64
2022/01/24 06:21:57;;;;;;;3.20;0.47;;;4.50;99.90;;;;;;4938288;28;20142;-64
2022/01/24 06:24:24;;;;;;;2.78;1.05;;;4.50;99.90;;;;;;4939930;28;20121;-67
2022/01/24 06:27:09;;;;;;;2.22;0.60;;;4.50;99.90;;;;;;4937858;28;20059;-64
2022/01/24 06:29:36;;;;;;;1.17;0.60;;;4.50;99.90;;;;;;4936165;28;20065;-67
2022/01/24 06:32:04;;;;;;;2.13;0.73;;;4.50;99.90;;;;;;4939846;28;20059;-66
2022/01/24 06:34:31;;;;;;;1.42;1.23;;;4.50;99.90;;;;;;4939599;28;20051;-66
2022/01/24 06:36:57;;;;;;;0.88;0.50;;;4.50;99.90;;;;;;4937805;28;20085;-68
2022/01/24 06:39:25;;;;;;;1.83;0.70;;;4.50;99.90;;;;;;4938455;28;20055;-64
2022/01/24 06:42:08;;;;;;;3.38;1.02;;;4.50;99.90;;;;;;4943126;28;20051;-71
2022/01/24 06:44:34;;;;;;;0.45;0.40;;;4.50;99.90;;;;;;4940756;28;20051;-71
2022/01/24 06:47:02;;;;;;;0.93;0.60;;;4.60;99.90;;;;;;4940655;28;20169;-72
2022/01/24 06:49:29;;;;;;;3.25;0.70;;;4.60;99.90;;;;;;4942867;28;20063;-72
2022/01/24 06:51:55;;;;;;;7.90;2.17;;;4.50;99.90;;;;;;4942336;28;20133;-64
2022/01/24 06:54:22;;;;;;;6.75;3.72;;;4.50;99.90;;;;;;4940976;28;20055;-73
2022/01/24 06:56:49;;;;;;;5.28;2.55;;;4.50;99.90;;;;;;4944842;28;20053;-65
2022/01/24 06:59:16;;;;;;;2.90;2.15;;;4.50;99.90;;;;;;4944189;28;20497;-74
2022/01/24 07:01:43;;;;;;;2.75;1.10;;;4.50;99.90;;;;;;4936520;28;20145;-66
2022/01/24 07:04:10;;;;;;;4.72;2.15;;;4.50;99.90;;;;;;4941182;28;20059;-67
2022/01/24 07:06:37;;;;;;;1.30;1.00;;;4.60;99.90;;;;;;4940373;28;20679;-67
2022/01/24 07:09:04;;;;;;;3.05;1.25;;;4.50;99.90;;;;;;4919421;28;20168;-66
2022/01/24 07:11:40;;;;;;;1.20;0.85;;;4.50;99.90;;;;;;3243920;28;10022218;-65
2022/01/24 07:14:12;;;;;;;5.00;1.65;;;4.60;99.90;;;;;;2897158;28;10001980;-66
2022/01/24 07:19:26;;;;;;;0.73;0.50;;;4.60;99.90;;;;;;4942214;28;20611;-68
2022/01/24 07:21:55;;;;;;;3.00;1.45;;;4.60;99.90;;;;;;4939828;28;20083;-78
2022/01/24 07:24:22;;;;;;;0.43;0.43;;;4.60;99.90;;;;;;4941549;28;20505;-67
2022/01/24 07:26:49;;;;;;;1.95;0.88;;;4.60;99.90;;;;;;4942290;28;20103;-65
2022/01/24 07:29:17;;;;;;;2.30;0.60;;;4.60;99.90;;;;;;4943425;28;20067;-64
2022/01/24 07:31:44;;;;;;;1.15;0.60;;;4.70;99.90;;;;;;4939771;28;20139;-65
2022/01/24 07:34:11;;;;;;;2.00;0.75;;;4.70;99.90;;;;;;4940236;28;20069;-64
2022/01/24 07:36:38;;;;;;;1.02;0.68;;;4.70;99.90;;;;;;4941464;28;20133;-70
2022/01/24 07:39:05;;;;;;;0.80;0.80;;;4.70;99.90;;;;;;4939677;28;20793;-66
2022/01/24 07:41:34;;;;;;;1.70;0.73;;;4.80;99.90;;;;;;4937156;28;20078;-63
2022/01/24 07:44:01;;;;;;;1.85;0.60;;;4.80;99.90;;;;;;4940440;28;20051;-70
2022/01/24 07:46:28;;;;;;;0.90;0.60;;;4.90;99.90;;;;;;4939296;28;20378;-72
2022/01/24 07:48:56;;;;;;;1.73;0.75;;;4.90;99.90;;;;;;4937075;28;23824;-65
2022/01/24 07:51:23;;;;;;;1.13;0.50;;;4.90;99.90;;;;;;4936960;28;20146;-71
2022/01/24 07:53:49;;;;;;;2.15;1.63;;;4.90;99.90;;;;;;4937505;28;20099;-70
2022/01/24 07:56:19;;;;;;;1.10;0.85;;;4.90;99.90;;;;;;4936800;28;20050;-73
2022/01/24 07:58:46;;;;;;;1.15;0.38;;;5.00;99.90;;;;;;4937840;28;20159;-68
2022/01/24 08:01:14;;;;;;;2.60;0.40;;;5.00;99.90;;;;;;4936476;28;20070;-68
2022/01/24 08:03:43;;;;;;;0.77;0.50;;;5.00;99.90;;;;;;4938007;28;20495;-68
2022/01/24 08:06:10;;;;;;;1.20;0.90;;;5.00;99.90;;;;;;4937115;28;21229;-70
2022/01/24 08:08:37;;;;;;;0.65;0.50;;;5.00;99.90;;;;;;4938437;28;20142;-70
2022/01/24 08:11:04;;;;;;;1.75;0.43;;;5.00;99.90;;;;;;4938974;28;20169;-69
2022/01/24 08:13:31;;;;;;;1.75;0.90;;;5.00;99.90;;;;;;4936295;28;20068;-68
2022/01/24 08:15:58;;;;;;;1.38;0.50;;;5.00;99.90;;;;;;4936729;28;20476;-67
2022/01/24 08:18:25;;;;;;;1.95;0.60;;;5.00;99.90;;;;;;4937049;28;20059;-64
2022/01/24 08:20:52;;;;;;;1.95;0.68;;;5.10;99.90;;;;;;4938181;28;20051;-67
2022/01/24 08:23:20;;;;;;;0.40;0.40;;;5.10;99.90;;;;;;4942430;28;20086;-72
2022/01/24 08:25:53;;;;;;;1.35;0.63;;;5.10;99.90;;;;;;4939257;28;20056;-69
2022/01/24 08:28:20;;;;;;;1.20;0.60;;;5.10;99.90;;;;;;4939531;28;20134;-68
2022/01/24 08:30:47;;;;;;;0.32;0.32;;;5.10;99.90;;;;;;4941966;28;20051;-67
2022/01/24 08:33:14;;;;;;;2.78;0.60;;;5.10;99.90;;;;;;4940635;28;20048;-68
2022/01/24 08:35:41;;;;;;;0.20;0.13;;;5.10;99.90;;;;;;4939432;28;20059;-70
2022/01/24 08:38:08;;;;;;;0.95;0.50;;;5.10;99.90;;;;;;4940327;28;20058;-67
2022/01/24 08:40:38;;;;;;;2.10;0.45;;;5.10;99.90;;;;;;4939615;28;20443;-65
2022/01/24 08:43:06;;;;;;;0.33;0.30;;;5.10;99.90;;;;;;4940145;28;20130;-68
2022/01/24 08:45:50;;;;;;;0.50;0.40;;;5.20;99.90;;;;;;4938147;28;21218;-68
2022/01/24 08:48:21;;;;;;;1.15;0.43;;;5.20;99.90;;;;;;4940782;28;20685;-72
2022/01/24 08:50:53;;;;;;;0.70;0.65;;;5.20;99.90;;;;;;4939554;28;20143;-67
2022/01/24 08:53:31;;;;;;;2.00;0.57;;;5.10;99.90;;;;;;4937672;28;20059;-64
2022/01/24 08:56:00;;;;;;;2.13;0.77;;;5.20;99.90;;;;;;4941172;28;20051;-72
2022/01/24 08:58:28;;;;;;;1.20;0.40;;;5.20;99.90;;;;;;4939573;28;20055;-71
2022/01/24 09:00:55;;;;;;;2.40;0.52;;;5.20;99.90;;;;;;4938451;28;20070;-67
2022/01/24 09:03:25;;;;;;;0.75;0.75;;;5.10;99.90;;;;;;4938448;28;20047;-70
2022/01/24 09:05:53;;;;;;;0.93;0.30;;;5.10;99.90;;;;;;4937463;28;20083;-68
2022/01/24 09:08:22;;;;;;;1.63;0.22;;;5.20;99.90;;;;;;4939927;28;20051;-68
2022/01/24 09:10:51;;;;;;;0.80;0.45;;;5.20;99.90;;;;;;4940204;28;20067;-79
2022/01/24 09:13:19;;;;;;;1.77;0.60;;;5.20;99.90;;;;;;4939408;28;20047;-71
2022/01/24 09:15:47;;;;;;;0.50;0.50;;;5.20;99.90;;;;;;4939937;28;20066;-69
2022/01/24 09:18:15;;;;;;;1.77;0.50;;;5.20;99.90;;;;;;4937242;28;20150;-66
2022/01/24 09:20:42;;;;;;;2.38;0.57;;;5.20;99.90;;;;;;4939470;28;20059;-67
2022/01/24 09:23:14;;;;;;;0.55;0.40;;;5.20;99.90;;;;;;4938410;28;20503;-69
2022/01/24 09:25:42;;;;;;;3.15;0.70;;;5.20;99.90;;;;;;4937468;28;20137;-71
2022/01/24 09:28:09;;;;;;;0.65;0.40;;;5.20;99.90;;;;;;4939003;28;20605;-74
2022/01/24 09:30:36;;;;;;;0.90;0.65;;;5.20;99.90;;;;;;4940903;28;20148;-69
2022/01/24 09:33:03;;;;;;;3.03;0.60;;;5.20;99.90;;;;;;4938696;28;20113;-70
2022/01/24 09:35:30;;;;;;;3.40;0.60;;;5.10;99.90;;;;;;4938178;28;20047;-72
2022/01/24 09:37:57;;;;;;;1.80;0.70;;;5.20;99.90;;;;;;4823306;28;20749;-75
2022/01/24 09:40:25;;;;;;;1.13;0.52;;;5.10;99.90;;;;;;990702;28;10002011;-66
2022/01/24 09:42:53;;;;;;;1.92;0.60;;;5.10;99.90;;;;;;4939787;28;20058;-64
2022/01/24 09:45:21;;;;;;;3.22;1.13;;;5.10;99.90;;;;;;4939752;28;20084;-68
2022/01/24 09:47:49;;;;;;;1.15;1.05;;;5.10;99.90;;;;;;4938579;28;20044;-66
2022/01/24 09:50:18;;;;;;;4.88;0.95;;;5.00;99.90;;;;;;4966586;28;20054;-67
2022/01/24 09:52:48;;;;;;;4.53;0.73;;;5.00;99.90;;;;;;4940195;28;20186;-70
2022/01/24 09:55:18;;;;;;;4.53;1.10;;;5.00;99.90;;;;;;4939835;28;20388;-68
2022/01/24 09:57:47;;;;;;;1.77;0.70;;;5.00;99.90;;;;;;4935487;28;20063;-66
2022/01/24 10:00:23;;;;;;;1.33;0.95;;;5.00;99.90;;;;;;4939676;28;20047;-64
2022/01/24 10:02:52;;;;;;;0.35;0.35;;;5.00;99.90;;;;;;4938148;28;20487;-70
2022/01/24 10:05:39;;;;;;;3.70;0.60;;;5.00;99.90;;;;;;4938064;28;20078;-69
2022/01/24 10:08:27;;;;;;;1.55;0.40;;;5.00;99.90;;;;;;4938832;28;20055;-66
2022/01/24 10:11:03;;;;;;;2.38;0.90;;;5.00;99.90;;;;;;4936675;28;20151;-67
2022/01/24 10:16:30;;;;;;;1.45;0.50;;;4.90;99.90;;;;;;4938511;28;20070;-70
2022/01/24 10:19:10;;;;;;;2.30;0.57;;;5.00;99.90;;;;;;4937630;28;20118;-72
2022/01/24 10:22:00;;;;;;;1.40;0.55;;;5.00;99.90;;;;;;4937255;28;20189;-65
2022/01/24 10:24:37;;;;;;;1.17;0.60;;;4.90;99.90;;;;;;4938027;28;20218;-68
2022/01/24 10:27:21;;;;;;;2.05;1.02;;;4.90;99.90;;;;;;4938332;28;20043;-68
2022/01/24 10:30:03;;;;;;;1.88;0.80;;;4.90;99.90;;;;;;4939813;28;20406;-65
2022/01/24 10:32:48;;;;;;;1.15;0.77;;;4.90;99.90;;;;;;4938037;28;20471;-69
2022/01/24 10:35:37;;;;;;;3.38;0.50;;;4.90;99.90;;;;;;4936318;28;20616;-67
2022/01/24 10:38:54;;;;;;;3.35;0.50;;;4.90;99.90;;;;;;4938572;28;20052;-65
2022/01/24 10:43:41;;;;;;;1.02;0.47;;;4.90;99.90;;;;;;4935636;28;20091;-70
2022/01/24 10:46:09;;;;;;;1.35;0.70;;;4.90;99.90;;;;;;4937087;28;20454;-72
2022/01/24 10:48:41;;;;;;;2.08;0.80;;;4.90;99.90;;;;;;4939648;28;20050;-65
2022/01/24 10:51:17;;;;;;;3.78;0.85;;;4.90;99.90;;;;;;4938867;28;20090;-67
2022/01/24 10:53:47;;;;;;;0.60;0.45;;;4.90;99.90;;;;;;4937518;28;20462;-64
2022/01/24 10:56:38;;;;;;;5.85;0.90;;;4.90;99.90;;;;;;4941120;28;20074;-66
2022/01/24 10:59:11;;;;;;;6.90;1.02;;;4.90;99.90;;;;;;4939832;28;20054;-66
2022/01/24 11:01:43;;;;;;;1.85;0.63;;;4.90;99.90;;;;;;4937679;28;20571;-63
2022/01/24 11:04:14;;;;;;;2.83;0.80;;;4.90;99.90;;;;;;4939673;28;20054;-75
2022/01/24 11:06:50;;;;;;;1.52;0.60;;;4.90;99.90;;;;;;4936622;28;20055;-67
2022/01/24 11:09:24;;;;;;;2.45;1.75;;;4.90;99.90;;;;;;4903716;28;20169;-65
2022/01/24 11:12:11;;;;;;;1.95;0.80;;;4.90;99.90;;;;;;2364795;28;10022896;-64
2022/01/24 11:14:41;;;;;;;1.80;1.27;;;4.90;99.90;;;;;;4258844;28;10000926;-66
2022/01/24 11:17:12;;;;;;;1.30;0.70;;;4.90;99.90;;;;;;4935433;28;20146;-64
2022/01/24 11:19:46;;;;;;;0.63;0.47;;;4.90;99.90;;;;;;4936597;28;21355;-67
2022/01/24 11:22:20;;;;;;;2.78;0.75;;;4.90;99.90;;;;;;4937185;28;20078;-66
2022/01/24 11:24:56;;;;;;;8.60;1.10;;;4.90;99.90;;;;;;4937586;28;20464;-69
2022/01/24 11:27:36;;;;;;;1.67;0.50;;;4.90;99.90;;;;;;4939282;28;20126;-70
2022/01/24 11:30:28;;;;;;;1.35;0.50;;;4.90;99.90;;;;;;4942007;28;20134;-66
2022/01/24 11:33:13;;;;;;;3.80;0.90;;;4.90;99.90;;;;;;4939922;28;20441;-67
2022/01/24 11:35:52;;;;;;;1.15;0.45;;;4.90;99.90;;;;;;4941362;28;21073;-64
2022/01/24 11:38:31;;;;;;;3.13;1.00;;;4.90;99.90;;;;;;4938929;28;20127;-64
2022/01/24 11:41:46;;;;;;;1.42;0.52;;;4.90;99.90;;;;;;4941829;28;20117;-72
2022/01/24 11:44:10;;;;;;;3.33;0.88;;;4.90;99.90;;;;;;4938650;28;20066;-68
2022/01/24 11:46:43;;;;;;;1.58;0.77;;;4.90;99.90;;;;;;4938608;28;20044;-64
2022/01/24 11:49:26;;;;;;;2.10;0.70;;;4.90;99.90;;;;;;4940922;28;20054;-65
2022/01/24 11:52:06;;;;;;;3.72;0.98;;;4.90;99.90;;;;;;4937861;28;20138;-64
2022/01/24 11:57:22;;;;;;;1.63;0.73;;;4.90;99.90;;;;;;4941634;28;20170;-65
2022/01/24 12:00:09;;;;;;;0.70;0.70;;;4.90;99.90;;;;;;4940195;28;20063;-66
2022/01/24 12:02:51;;;;;;;1.33;0.45;;;4.90;99.90;;;;;;4941451;28;20580;-64
2022/01/24 12:05:40;;;;;;;4.60;1.58;;;4.90;99.90;;;;;;4939247;28;20055;-68
2022/01/24 12:08:10;;;;;;;2.13;0.77;;;4.90;99.90;;;;;;4940071;28;20067;-70
2022/01/24 12:11:18;;;;;;;;;;;4.90;99.90;;;;;;4943718;28;20050;-68
2022/01/24 12:14:01;;;;;;;5.07;0.98;;;4.80;99.90;;;;;;4938062;28;19934;-67
2022/01/24 12:16:41;;;;;;;2.75;0.93;;;4.80;99.90;;;;;;4941660;28;20849;-65
2022/01/24 12:19:11;;;;;;;3.03;0.80;;;4.80;99.90;;;;;;4939659;28;20587;-76
2022/01/24 12:21:39;;;;;;;1.50;0.57;;;4.80;99.90;;;;;;4939653;28;21000;-71
2022/01/24 12:24:08;;;;;;;2.05;0.80;;;4.80;99.90;;;;;;4939763;28;20058;-71
2022/01/24 12:27:01;;;;;;;2.00;0.60;;;4.70;99.90;;;;;;4941586;28;20063;-78
2022/01/24 12:29:27;;;;;;;2.22;0.70;;;4.80;99.90;;;;;;4939101;28;20378;-73
2022/01/24 12:31:58;;;;;;;1.85;0.93;;;4.70;99.90;;;;;;4934058;28;20054;-69
2022/01/24 12:34:42;;;;;;;0.77;0.50;;;4.70;99.90;;;;;;4939416;28;20126;-70
2022/01/24 12:37:27;;;;;;;2.15;0.60;;;4.70;99.90;;;;;;4938667;28;20074;-64
2022/01/24 12:39:58;;;;;;;4.55;1.08;;;4.70;99.90;;;;;;4922496;28;20047;-74
2022/01/24 12:42:36;;;;;;;4.68;1.08;;;4.70;99.90;;;;;;4937497;28;20142;-77
2022/01/24 12:47:56;;;;;;;4.47;0.68;;;4.70;99.90;;;;;;4937180;28;20378;-69
2022/01/24 12:50:24;;;;;;;1.38;0.85;;;4.70;99.90;;;;;;4933767;28;20051;-71
2022/01/24 12:52:53;;;;;;;0.75;0.32;;;4.70;99.90;;;;;;4938404;28;20058;-68
2022/01/24 12:55:20;;;;;;;3.25;0.63;;;4.70;99.90;;;;;;4939087;28;20109;-70
2022/01/24 12:57:47;;;;;;;2.53;0.43;;;4.70;99.90;;;;;;4951610;28;20054;-72
2022/01/24 13:00:18;;;;;;;1.17;0.50;;;4.70;99.90;;;;;;4939644;28;20070;-71
2022/01/24 13:02:45;;;;;;;0.70;0.50;;;4.70;99.90;;;;;;4937608;28;20051;-70
2022/01/24 13:05:15;;;;;;;2.95;1.58;;;4.70;99.90;;;;;;4936699;28;20409;-66
2022/01/24 13:07:52;;;;;;;1.08;0.95;;;4.70;99.90;;;;;;4937893;28;20568;-68
2022/01/24 13:10:30;;;;;;;1.95;0.30;;;4.70;99.90;;;;;;4853682;28;20047;-68
2022/01/24 13:13:13;;;;;;;2.13;1.50;;;4.70;99.90;;;;;;1332142;28;10002026;-69
2022/01/24 13:21:19;;;;;;;;;;;4.80;99.90;;;;;;4939550;28;20170;-70
2022/01/24 13:23:57;;;;;;;0.80;0.40;;;4.80;99.90;;;;;;4936499;28;19936;-65
2022/01/24 13:26:26;;;;;;;1.10;0.40;;;4.70;99.90;;;;;;4941013;28;20082;-68
2022/01/24 13:29:05;;;;;;;1.55;0.50;;;4.70;99.90;;;;;;4941161;28;20046;-67
2022/01/24 13:31:33;;;;;;;1.70;0.68;;;4.70;99.90;;;;;;4935739;28;20133;-71
2022/01/24 13:34:02;;;;;;;2.13;0.80;;;4.70;99.90;;;;;;4938477;28;20047;-65
2022/01/24 13:36:29;;;;;;;2.17;0.70;;;4.70;99.90;;;;;;4937618;28;20066;-69
2022/01/24 13:38:56;;;;;;;0.40;0.30;;;4.70;99.90;;;;;;4938354;28;20135;-70
2022/01/24 13:41:24;;;;;;;2.38;0.40;;;4.80;99.90;;;;;;4938549;28;20055;-66
2022/01/24 13:43:57;;;;;;;2.17;1.08;;;4.80;99.90;;;;;;4936512;28;20429;-67
2022/01/24 13:46:44;;;;;;;2.60;0.60;;;4.80;99.90;;;;;;4936648;28;20047;-70
2022/01/24 13:49:16;;;;;;;3.05;0.88;;;4.80;99.90;;;;;;4937033;28;20788;-68
2022/01/24 13:51:49;;;;;;;5.57;2.85;;;4.70;99.90;;;;;;4937395;28;20606;-67
2022/01/24 13:54:28;;;;;;;2.13;0.40;;;4.70;99.90;;;;;;4936719;28;20063;-70
2022/01/24 13:56:57;;;;;;;7.15;0.50;;;4.70;99.90;;;;;;4938353;28;20055;-70
2022/01/24 13:59:29;;;;;;;1.90;0.40;;;4.70;99.90;;;;;;4934780;28;20043;-67
2022/01/24 14:01:59;;;;;;;0.93;0.20;;;4.70;99.90;;;;;;4938889;28;20059;-67
2022/01/24 14:04:35;;;;;;;1.52;0.50;;;4.70;99.90;;;;;;4938768;28;20090;-67
2022/01/24 14:07:09;;;;;;;1.35;0.30;;;4.70;99.90;;;;;;4938270;28;20067;-67
2022/01/24 14:09:41;;;;;;;0.22;0.22;;;4.70;99.90;;;;;;4936531;28;20131;-67
2022/01/24 14:12:15;;;;;;;1.00;0.50;;;4.60;99.90;;;;;;4938833;28;20055;-72
2022/01/24 14:14:47;;;;;;;2.03;0.55;;;4.60;99.90;;;;;;4939105;28;20059;-70
2022/01/24 14:17:24;;;;;;;0.93;0.55;;;4.60;99.90;;;;;;4940649;28;20043;-67
2022/01/24 14:19:57;;;;;;;1.00;0.43;;;4.60;99.90;;;;;;4937974;28;20127;-68
2022/01/24 14:22:49;;;;;;;1.40;0.60;;;4.60;99.90;;;;;;4936890;28;20539;-65
2022/01/24 14:25:35;;;;;;;3.65;1.13;;;4.60;99.90;;;;;;4938115;28;20055;-66
2022/01/24 14:28:10;;;;;;;6.47;0.80;;;4.60;99.90;;;;;;4936325;28;20055;-70
2022/01/24 14:30:46;;;;;;;0.93;0.68;;;4.50;99.90;;;;;;4940398;28;20047;-68
2022/01/24 14:33:17;;;;;;;2.83;0.80;;;4.60;99.90;;;;;;4939634;28;20058;-67
2022/01/24 14:36:04;;;;;;;2.13;1.08;;;4.60;99.90;;;;;;4935166;28;20058;-70
2022/01/24 14:38:33;;;;;;;2.00;0.68;;;4.60;99.90;;;;;;4939119;28;20996;-67
2022/01/24 14:41:16;;;;;;;6.38;1.50;;;4.60;99.90;;;;;;4940057;28;20130;-67
2022/01/24 14:46:34;;;;;;;;;;;4.50;99.90;;;;;;4935117;28;20062;-65
2022/01/24 14:49:03;;;;;;;1.75;0.70;;;4.50;99.90;;;;;;4935650;28;19944;-70
2022/01/24 14:51:33;;;;;;;3.25;0.90;;;4.50;99.90;;;;;;4934635;28;20055;-69
2022/01/24 14:54:04;;;;;;;5.28;0.70;;;4.50;99.90;;;;;;4936374;28;20055;-67
2022/01/24 14:56:31;;;;;;;5.97;1.17;;;4.50;99.90;;;;;;4937630;28;20713;-74
2022/01/24 14:58:59;;;;;;;2.53;0.70;;;4.50;99.90;;;;;;4937980;28;20131;-67
2022/01/24 15:01:27;;;;;;;6.03;1.00;;;4.50;99.90;;;;;;4938683;28;20114;-71
2022/01/24 15:03:55;;;;;;;1.23;0.65;;;4.50;99.90;;;;;;4942563;28;20062;-76
2022/01/24 15:06:23;;;;;;;2.28;1.40;;;4.50;99.90;;;;;;4939460;28;20133;-71
2022/01/24 15:08:52;;;;;;;4.78;1.10;;;4.50;99.90;;;;;;4940509;28;20150;-69
2022/01/24 15:11:27;;;;;;;4.35;0.65;;;4.50;99.90;;;;;;3519201;28;10024295;-70
2022/01/24 15:13:59;;;;;;;5.07;1.10;;;4.50;99.90;;;;;;3406780;28;10002019;-68
2022/01/24 15:27:05;;;;;;;;;;;4.40;99.90;;;;;;4941381;28;20493;-67